sensor_id;sensor_type;location;lat;lon;timestamp;pressure;altitude;pressure_sealevel;temperature;humidity
54236;BME280;40151;43.606;1.472;2023-07-31T00:01:31;99745.63;;;28.92;45.55
54236;BME280;40151;43.606;1.472;2023-07-31T00:03:56;99738.56;;;28.91;45.49
54236;BME280;40151;43.606;1.472;2023-07-31T00:06:22;99741.38;;;28.89;44.87
54236;BME280;40151;43.606;1.472;2023-07-31T00:08:47;99732.59;;;28.87;45.23
54236;BME280;40151;43.606;1.472;2023-07-31T00:11:13;99740.66;;;28.87;45.15
54236;BME280;40151;43.606;1.472;2023-07-31T00:13:38;99730.88;;;28.86;45.15
54236;BME280;40151;43.606;1.472;2023-07-31T00:16:03;99730.88;;;28.86;45.01
54236;BME280;40151;43.606;1.472;2023-07-31T00:18:29;99731.16;;;28.83;45.06
54236;BME280;40151;43.606;1.472;2023-07-31T00:20:54;99732.84;;;28.84;45.30
54236;BME280;40151;43.606;1.472;2023-07-31T00:23:20;99729.16;;;28.85;45.55
54236;BME280;40151;43.606;1.472;2023-07-31T00:25:45;99739.81;;;28.87;45.37
54236;BME280;40151;43.606;1.472;2023-07-31T00:28:10;99744.19;;;28.88;45.51
54236;BME280;40151;43.606;1.472;2023-07-31T00:30:36;99744.06;;;28.89;45.59
54236;BME280;40151;43.606;1.472;2023-07-31T00:33:01;99739.38;;;28.91;45.34
54236;BME280;40151;43.606;1.472;2023-07-31T00:35:27;99734.00;;;28.91;45.38
54236;BME280;40151;43.606;1.472;2023-07-31T00:37:52;99732.06;;;28.93;45.32
54236;BME280;40151;43.606;1.472;2023-07-31T00:40:17;99733.31;;;28.89;45.46
54236;BME280;40151;43.606;1.472;2023-07-31T00:42:43;99730.50;;;28.91;45.33
54236;BME280;40151;43.606;1.472;2023-07-31T00:45:08;99724.97;;;28.92;45.19
54236;BME280;40151;43.606;1.472;2023-07-31T00:47:34;99723.25;;;28.91;44.90
54236;BME280;40151;43.606;1.472;2023-07-31T00:49:59;99734.31;;;28.88;44.93
54236;BME280;40151;43.606;1.472;2023-07-31T00:52:25;99726.94;;;28.90;45.11
54236;BME280;40151;43.606;1.472;2023-07-31T00:54:50;99719.75;;;28.91;44.67
54236;BME280;40151;43.606;1.472;2023-07-31T00:57:16;99722.69;;;28.88;44.78
54236;BME280;40151;43.606;1.472;2023-07-31T00:59:41;99725.25;;;28.89;44.88
54236;BME280;40151;43.606;1.472;2023-07-31T01:02:07;99721.00;;;28.87;44.94
54236;BME280;40151;43.606;1.472;2023-07-31T01:04:32;99721.88;;;28.87;44.94
54236;BME280;40151;43.606;1.472;2023-07-31T01:07:10;99732.84;;;28.84;45.02
54236;BME280;40151;43.606;1.472;2023-07-31T01:10:03;99726.91;;;28.80;44.92
54236;BME280;40151;43.606;1.472;2023-07-31T01:12:31;99731.16;;;28.83;44.79
54236;BME280;40151;43.606;1.472;2023-07-31T01:15:09;99726.03;;;28.80;44.86
54236;BME280;40151;43.606;1.472;2023-07-31T01:17:39;99728.59;;;28.81;44.83
54236;BME280;40151;43.606;1.472;2023-07-31T01:20:12;99728.88;;;28.78;45.07
54236;BME280;40151;43.606;1.472;2023-07-31T01:28:08;99726.59;;;28.74;45.22
54236;BME280;40151;43.606;1.472;2023-07-31T01:30:41;99730.97;;;28.75;44.76
54236;BME280;40151;43.606;1.472;2023-07-31T01:33:08;99717.56;;;28.75;44.76
54236;BME280;40151;43.606;1.472;2023-07-31T01:35:35;99726.34;;;28.77;44.84
54236;BME280;40151;43.606;1.472;2023-07-31T01:38:01;99721.22;;;28.74;44.63
54236;BME280;40151;43.606;1.472;2023-07-31T01:40:27;99717.56;;;28.75;44.54
54236;BME280;40151;43.606;1.472;2023-07-31T01:42:52;99718.41;;;28.75;45.03
54236;BME280;40151;43.606;1.472;2023-07-31T01:45:17;99713.47;;;28.71;44.91
54236;BME280;40151;43.606;1.472;2023-07-31T01:47:43;99707.09;;;28.72;45.04
54236;BME280;40151;43.606;1.472;2023-07-31T01:50:09;99713.47;;;28.71;44.48
54236;BME280;40151;43.606;1.472;2023-07-31T01:52:34;99714.47;;;28.70;44.63
54236;BME280;40151;43.606;1.472;2023-07-31T01:55:00;99716.16;;;28.71;44.51
54236;BME280;40151;43.606;1.472;2023-07-31T01:57:26;99709.09;;;28.70;44.90
54236;BME280;40151;43.606;1.472;2023-07-31T01:59:51;99709.09;;;28.70;44.70
54236;BME280;40151;43.606;1.472;2023-07-31T02:02:18;99708.34;;;28.67;44.76
54236;BME280;40151;43.606;1.472;2023-07-31T02:04:44;99702.28;;;28.65;44.75
54236;BME280;40151;43.606;1.472;2023-07-31T02:07:09;99700.31;;;28.67;44.59
54236;BME280;40151;43.606;1.472;2023-07-31T02:09:34;99694.94;;;28.67;44.44
54236;BME280;40151;43.606;1.472;2023-07-31T02:12:00;99691.56;;;28.65;44.78
54236;BME280;40151;43.606;1.472;2023-07-31T02:14:25;99687.00;;;28.66;44.47
54236;BME280;40151;43.606;1.472;2023-07-31T02:16:51;99687.88;;;28.66;44.65
54236;BME280;40151;43.606;1.472;2023-07-31T02:19:16;99685.47;;;28.63;44.81
54236;BME280;40151;43.606;1.472;2023-07-31T02:21:41;99688.16;;;28.63;44.58
54236;BME280;40151;43.606;1.472;2023-07-31T02:24:07;99676.69;;;28.61;44.46
54236;BME280;40151;43.606;1.472;2023-07-31T02:26:32;99684.75;;;28.61;44.43
54236;BME280;40151;43.606;1.472;2023-07-31T02:28:58;99682.81;;;28.63;44.88
54236;BME280;40151;43.606;1.472;2023-07-31T02:31:23;99686.75;;;28.59;44.76
54236;BME280;40151;43.606;1.472;2023-07-31T02:33:48;99683.06;;;28.60;44.68
54236;BME280;40151;43.606;1.472;2023-07-31T02:36:14;99677.69;;;28.60;44.86
54236;BME280;40151;43.606;1.472;2023-07-31T02:38:40;99676.00;;;28.59;44.40
54236;BME280;40151;43.606;1.472;2023-07-31T02:41:05;99681.38;;;28.59;44.38
54236;BME280;40151;43.606;1.472;2023-07-31T02:43:31;99673.75;;;28.54;44.31
54236;BME280;40151;43.606;1.472;2023-07-31T02:45:56;99677.97;;;28.57;44.58
54236;BME280;40151;43.606;1.472;2023-07-31T02:48:22;99681.94;;;28.53;44.45
54236;BME280;40151;43.606;1.472;2023-07-31T02:50:47;99681.06;;;28.52;44.43
54236;BME280;40151;43.606;1.472;2023-07-31T02:53:13;99682.19;;;28.50;44.93
54236;BME280;40151;43.606;1.472;2023-07-31T02:55:38;99675.13;;;28.49;44.27
54236;BME280;40151;43.606;1.472;2023-07-31T02:58:04;99678.69;;;28.49;44.53
54236;BME280;40151;43.606;1.472;2023-07-31T03:00:29;99677.81;;;28.49;44.56
54236;BME280;40151;43.606;1.472;2023-07-31T03:02:55;99666.09;;;28.50;44.46
54236;BME280;40151;43.606;1.472;2023-07-31T03:05:20;99669.75;;;28.49;44.53
54236;BME280;40151;43.606;1.472;2023-07-31T03:07:46;99663.69;;;28.47;44.58
54236;BME280;40151;43.606;1.472;2023-07-31T03:10:11;99663.81;;;28.45;44.63
54236;BME280;40151;43.606;1.472;2023-07-31T03:12:37;99658.47;;;28.45;44.67
54236;BME280;40151;43.606;1.472;2023-07-31T03:15:02;99662.00;;;28.46;44.59
54236;BME280;40151;43.606;1.472;2023-07-31T03:17:28;99664.09;;;28.42;44.42
54236;BME280;40151;43.606;1.472;2023-07-31T03:19:53;99670.06;;;28.46;44.66
54236;BME280;40151;43.606;1.472;2023-07-31T03:22:19;99660.16;;;28.46;44.32
54236;BME280;40151;43.606;1.472;2023-07-31T03:24:44;99660.28;;;28.45;44.49
54236;BME280;40151;43.606;1.472;2023-07-31T03:27:09;99665.81;;;28.43;44.60
54236;BME280;40151;43.606;1.472;2023-07-31T03:29:35;99665.94;;;28.41;44.77
54236;BME280;40151;43.606;1.472;2023-07-31T03:32:00;99666.34;;;28.37;44.61
54236;BME280;40151;43.606;1.472;2023-07-31T03:34:26;99664.34;;;28.29;44.69
54236;BME280;40151;43.606;1.472;2023-07-31T03:36:51;99662.38;;;28.31;45.01
54236;BME280;40151;43.606;1.472;2023-07-31T03:39:17;99666.19;;;28.28;44.79
54236;BME280;40151;43.606;1.472;2023-07-31T03:41:42;99668.03;;;28.28;44.46
54236;BME280;40151;43.606;1.472;2023-07-31T03:44:07;99658.13;;;28.28;44.90
54236;BME280;40151;43.606;1.472;2023-07-31T03:46:33;99662.06;;;28.24;44.76
54236;BME280;40151;43.606;1.472;2023-07-31T03:48:59;99670.28;;;28.23;44.56
54236;BME280;40151;43.606;1.472;2023-07-31T03:51:25;99672.19;;;28.21;44.63
54236;BME280;40151;43.606;1.472;2023-07-31T03:53:50;99669.28;;;28.24;44.75
54236;BME280;40151;43.606;1.472;2023-07-31T03:56:15;99673.91;;;28.22;44.70
54236;BME280;40151;43.606;1.472;2023-07-31T03:58:41;99669.66;;;28.19;44.88
54236;BME280;40151;43.606;1.472;2023-07-31T04:01:06;99673.84;;;28.12;44.59
54236;BME280;40151;43.606;1.472;2023-07-31T04:03:32;99682.34;;;28.17;44.95
54236;BME280;40151;43.606;1.472;2023-07-31T04:05:57;99686.88;;;28.17;44.81
54236;BME280;40151;43.606;1.472;2023-07-31T04:08:23;99676.16;;;28.17;44.81
54236;BME280;40151;43.606;1.472;2023-07-31T04:10:48;99676.16;;;28.17;44.46
54236;BME280;40151;43.606;1.472;2023-07-31T04:13:14;99678.66;;;28.08;44.88
54236;BME280;40151;43.606;1.472;2023-07-31T04:15:39;99676.63;;;28.00;45.04
54236;BME280;40151;43.606;1.472;2023-07-31T04:18:06;99685.41;;;28.03;44.63
54236;BME280;40151;43.606;1.472;2023-07-31T04:20:31;99675.34;;;27.95;44.83
54236;BME280;40151;43.606;1.472;2023-07-31T04:22:57;99683.09;;;27.98;44.72
54236;BME280;40151;43.606;1.472;2023-07-31T04:25:22;99684.38;;;27.94;44.66
54236;BME280;40151;43.606;1.472;2023-07-31T04:27:47;99677.47;;;27.91;44.97
54236;BME280;40151;43.606;1.472;2023-07-31T04:30:13;99684.75;;;27.89;44.69
54236;BME280;40151;43.606;1.472;2023-07-31T04:32:38;99689.56;;;27.85;44.78
54236;BME280;40151;43.606;1.472;2023-07-31T04:35:04;99691.53;;;27.83;44.90
54236;BME280;40151;43.606;1.472;2023-07-31T04:37:29;99691.78;;;27.80;45.02
54236;BME280;40151;43.606;1.472;2023-07-31T04:39:55;99694.75;;;27.77;45.08
54236;BME280;40151;43.606;1.472;2023-07-31T04:42:20;99688.13;;;27.81;44.86
54236;BME280;40151;43.606;1.472;2023-07-31T04:44:46;99695.44;;;27.79;44.81
54236;BME280;40151;43.606;1.472;2023-07-31T04:47:12;99700.81;;;27.79;45.03
54236;BME280;40151;43.606;1.472;2023-07-31T04:49:37;99705.91;;;27.82;45.20
54236;BME280;40151;43.606;1.472;2023-07-31T04:52:03;99705.34;;;27.79;44.70
54236;BME280;40151;43.606;1.472;2023-07-31T04:54:28;99711.69;;;27.78;45.03
54236;BME280;40151;43.606;1.472;2023-07-31T04:56:54;99706.44;;;27.76;45.06
54236;BME280;40151;43.606;1.472;2023-07-31T04:59:19;99715.47;;;27.75;44.95
54236;BME280;40151;43.606;1.472;2023-07-31T05:01:45;99712.06;;;27.73;44.60
54236;BME280;40151;43.606;1.472;2023-07-31T05:04:13;99719.97;;;27.74;44.77
54236;BME280;40151;43.606;1.472;2023-07-31T05:06:39;99712.06;;;27.73;44.89
54236;BME280;40151;43.606;1.472;2023-07-31T05:09:05;99712.06;;;27.73;44.70
54236;BME280;40151;43.606;1.472;2023-07-31T05:11:30;99712.94;;;27.73;44.82
54236;BME280;40151;43.606;1.472;2023-07-31T05:13:55;99717.44;;;27.73;44.90
54236;BME280;40151;43.606;1.472;2023-07-31T05:16:21;99717.19;;;27.76;44.80
54236;BME280;40151;43.606;1.472;2023-07-31T05:18:47;99710.38;;;27.72;44.95
54236;BME280;40151;43.606;1.472;2023-07-31T05:21:12;99716.84;;;27.69;44.62
54236;BME280;40151;43.606;1.472;2023-07-31T05:23:38;99718.69;;;27.69;44.95
54236;BME280;40151;43.606;1.472;2023-07-31T05:26:06;99714.03;;;27.71;44.94
54236;BME280;40151;43.606;1.472;2023-07-31T05:28:34;99710.66;;;27.69;45.02
54236;BME280;40151;43.606;1.472;2023-07-31T05:31:00;99708.94;;;27.68;44.63
54236;BME280;40151;43.606;1.472;2023-07-31T05:33:26;99705.53;;;27.66;44.80
54236;BME280;40151;43.606;1.472;2023-07-31T05:35:51;99710.91;;;27.66;44.66
54236;BME280;40151;43.606;1.472;2023-07-31T05:38:17;99704.84;;;27.64;44.63
54236;BME280;40151;43.606;1.472;2023-07-31T05:40:42;99707.22;;;27.67;44.97
54236;BME280;40151;43.606;1.472;2023-07-31T05:43:08;99707.22;;;27.67;44.67
54236;BME280;40151;43.606;1.472;2023-07-31T05:45:34;99712.59;;;27.67;44.82
54236;BME280;40151;43.606;1.472;2023-07-31T05:48:00;99708.94;;;27.68;44.71
54236;BME280;40151;43.606;1.472;2023-07-31T05:50:25;99714.28;;;27.68;44.67
54236;BME280;40151;43.606;1.472;2023-07-31T05:52:51;99722.47;;;27.66;44.81
54236;BME280;40151;43.606;1.472;2023-07-31T05:55:16;99717.97;;;27.67;44.72
54236;BME280;40151;43.606;1.472;2023-07-31T05:57:42;99719.66;;;27.68;44.93
54236;BME280;40151;43.606;1.472;2023-07-31T06:00:08;99720.50;;;27.68;44.98
54236;BME280;40151;43.606;1.472;2023-07-31T06:02:33;99724.06;;;27.69;44.96
54236;BME280;40151;43.606;1.472;2023-07-31T06:05:02;99738.41;;;27.68;44.57
54236;BME280;40151;43.606;1.472;2023-07-31T06:07:29;99728.56;;;27.68;44.81
54236;BME280;40151;43.606;1.472;2023-07-31T06:09:54;99729.41;;;27.69;44.48
54236;BME280;40151;43.606;1.472;2023-07-31T06:12:20;99730.38;;;27.68;44.74
54236;BME280;40151;43.606;1.472;2023-07-31T06:14:46;99725.00;;;27.68;44.75
54236;BME280;40151;43.606;1.472;2023-07-31T06:17:11;99722.19;;;27.69;44.55
54236;BME280;40151;43.606;1.472;2023-07-31T06:19:37;99733.78;;;27.70;44.81
54236;BME280;40151;43.606;1.472;2023-07-31T06:22:02;99725.75;;;27.70;44.60
54236;BME280;40151;43.606;1.472;2023-07-31T06:24:28;99726.75;;;27.69;44.81
54236;BME280;40151;43.606;1.472;2023-07-31T06:26:54;99723.78;;;27.72;44.95
54236;BME280;40151;43.606;1.472;2023-07-31T06:29:20;99731.81;;;27.72;44.58
54236;BME280;40151;43.606;1.472;2023-07-31T06:31:45;99731.56;;;27.75;44.72
54236;BME280;40151;43.606;1.472;2023-07-31T06:34:11;99726.22;;;27.75;44.58
54236;BME280;40151;43.606;1.472;2023-07-31T06:36:36;99727.91;;;27.76;44.59
54236;BME280;40151;43.606;1.472;2023-07-31T06:39:02;99737.50;;;27.79;44.37
54236;BME280;40151;43.606;1.472;2023-07-31T06:41:27;99731.56;;;27.75;44.80
54236;BME280;40151;43.606;1.472;2023-07-31T06:43:52;99736.66;;;27.78;44.58
54236;BME280;40151;43.606;1.472;2023-07-31T06:46:18;99739.34;;;27.78;44.73
54236;BME280;40151;43.606;1.472;2023-07-31T06:48:43;99738.34;;;27.79;44.78
54236;BME280;40151;43.606;1.472;2023-07-31T06:51:09;99733.72;;;27.81;44.30
54236;BME280;40151;43.606;1.472;2023-07-31T06:53:34;99729.31;;;27.80;44.33
54236;BME280;40151;43.606;1.472;2023-07-31T06:56:00;99727.38;;;27.82;44.64
54236;BME280;40151;43.606;1.472;2023-07-31T06:58:25;99730.06;;;27.82;44.73
54236;BME280;40151;43.606;1.472;2023-07-31T07:00:51;99734.44;;;27.83;44.63
54236;BME280;40151;43.606;1.472;2023-07-31T07:03:18;99736.13;;;27.84;44.45
54236;BME280;40151;43.606;1.472;2023-07-31T07:05:44;99732.44;;;27.85;44.65
54236;BME280;40151;43.606;1.472;2023-07-31T07:08:09;99727.94;;;27.86;44.48
54236;BME280;40151;43.606;1.472;2023-07-31T07:10:35;99726.13;;;27.86;44.75
54236;BME280;40151;43.606;1.472;2023-07-31T07:13:00;99729.53;;;27.88;44.47
54236;BME280;40151;43.606;1.472;2023-07-31T07:15:26;99729.53;;;27.88;44.35
54236;BME280;40151;43.606;1.472;2023-07-31T07:17:51;99730.50;;;27.87;44.46
54236;BME280;40151;43.606;1.472;2023-07-31T07:20:17;99730.50;;;27.87;44.69
54236;BME280;40151;43.606;1.472;2023-07-31T07:22:42;99725.16;;;27.87;44.39
54236;BME280;40151;43.606;1.472;2023-07-31T07:25:10;99728.81;;;27.86;44.71
54236;BME280;40151;43.606;1.472;2023-07-31T07:27:36;99728.53;;;27.90;44.50
54236;BME280;40151;43.606;1.472;2023-07-31T07:30:01;99722.31;;;27.89;44.81
54236;BME280;40151;43.606;1.472;2023-07-31T07:32:26;99724.03;;;27.90;44.42
54236;BME280;40151;43.606;1.472;2023-07-31T07:34:52;99716.81;;;27.91;44.36
54236;BME280;40151;43.606;1.472;2023-07-31T07:37:17;99717.56;;;27.93;44.81
54236;BME280;40151;43.606;1.472;2023-07-31T07:39:43;99720.25;;;27.93;44.72
54236;BME280;40151;43.606;1.472;2023-07-31T07:42:08;99720.25;;;27.93;44.47
54236;BME280;40151;43.606;1.472;2023-07-31T07:44:34;99717.28;;;27.96;44.67
54236;BME280;40151;43.606;1.472;2023-07-31T07:46:59;99718.13;;;27.96;44.73
54236;BME280;40151;43.606;1.472;2023-07-31T07:49:24;99722.63;;;27.96;44.75
54236;BME280;40151;43.606;1.472;2023-07-31T07:51:50;99712.91;;;27.95;44.64
54236;BME280;40151;43.606;1.472;2023-07-31T07:54:15;99720.09;;;27.94;44.90
54236;BME280;40151;43.606;1.472;2023-07-31T07:56:46;99715.56;;;27.95;44.41
54236;BME280;40151;43.606;1.472;2023-07-31T07:59:11;99716.44;;;27.95;44.36
54236;BME280;40151;43.606;1.472;2023-07-31T08:01:37;99715.56;;;27.95;44.76
54236;BME280;40151;43.606;1.472;2023-07-31T08:04:02;99715.56;;;27.95;44.79
54236;BME280;40151;43.606;1.472;2023-07-31T08:06:28;99708.25;;;27.97;44.78
54236;BME280;40151;43.606;1.472;2023-07-31T08:08:55;99708.25;;;27.97;44.54
54236;BME280;40151;43.606;1.472;2023-07-31T08:11:20;99710.91;;;27.97;44.85
54236;BME280;40151;43.606;1.472;2023-07-31T08:13:47;99709.69;;;28.01;44.44
54236;BME280;40151;43.606;1.472;2023-07-31T08:16:12;99709.69;;;28.01;44.43
54236;BME280;40151;43.606;1.472;2023-07-31T08:18:38;99701.63;;;28.01;44.43
54236;BME280;40151;43.606;1.472;2023-07-31T08:21:05;99699.81;;;28.01;44.51
54236;BME280;40151;43.606;1.472;2023-07-31T08:23:31;99692.47;;;28.04;44.38
54236;BME280;40151;43.606;1.472;2023-07-31T08:25:56;99693.34;;;28.04;44.51
54236;BME280;40151;43.606;1.472;2023-07-31T08:28:22;99700.38;;;28.05;44.61
54236;BME280;40151;43.606;1.472;2023-07-31T08:30:47;99693.16;;;28.06;44.47
54236;BME280;40151;43.606;1.472;2023-07-31T08:33:12;99694.03;;;28.06;44.37
54236;BME280;40151;43.606;1.472;2023-07-31T08:35:38;99687.69;;;28.07;44.90
54236;BME280;40151;43.606;1.472;2023-07-31T08:38:03;99678.66;;;28.08;44.30
54236;BME280;40151;43.606;1.472;2023-07-31T08:40:29;99674.97;;;28.09;44.58
54236;BME280;40151;43.606;1.472;2023-07-31T08:42:55;99674.97;;;28.09;44.45
54236;BME280;40151;43.606;1.472;2023-07-31T08:45:27;99679.38;;;28.10;44.64
54236;BME280;40151;43.606;1.472;2023-07-31T08:47:53;99671.34;;;28.10;44.35
54236;BME280;40151;43.606;1.472;2023-07-31T08:50:20;99674.00;;;28.10;44.27
54236;BME280;40151;43.606;1.472;2023-07-31T08:52:47;99673.84;;;28.12;44.51
54236;BME280;40151;43.606;1.472;2023-07-31T08:55:13;99669.34;;;28.12;44.45
54236;BME280;40151;43.606;1.472;2023-07-31T08:57:39;99678.38;;;28.11;44.39
54236;BME280;40151;43.606;1.472;2023-07-31T09:00:08;99667.66;;;28.11;44.70
54236;BME280;40151;43.606;1.472;2023-07-31T09:02:39;99654.94;;;28.13;44.53
54236;BME280;40151;43.606;1.472;2023-07-31T09:05:07;99665.69;;;28.13;44.46
54236;BME280;40151;43.606;1.472;2023-07-31T09:07:34;99658.50;;;28.14;44.29
54236;BME280;40151;43.606;1.472;2023-07-31T09:10:01;99663.69;;;28.15;44.39
54236;BME280;40151;43.606;1.472;2023-07-31T09:12:27;99660.06;;;28.17;44.62
54236;BME280;40151;43.606;1.472;2023-07-31T09:14:53;99653.69;;;28.18;44.24
54236;BME280;40151;43.606;1.472;2023-07-31T09:17:39;99655.41;;;28.19;44.65
54236;BME280;40151;43.606;1.472;2023-07-31T09:20:20;99649.91;;;28.20;44.27
54236;BME280;40151;43.606;1.472;2023-07-31T09:22:48;99649.91;;;28.20;44.41
54236;BME280;40151;43.606;1.472;2023-07-31T09:25:18;99647.09;;;28.22;44.20
54236;BME280;40151;43.606;1.472;2023-07-31T09:30:24;99646.81;;;28.25;44.57
54236;BME280;40151;43.606;1.472;2023-07-31T09:32:51;99646.81;;;28.25;44.49
54236;BME280;40151;43.606;1.472;2023-07-31T09:35:21;99644.84;;;28.27;44.50
54236;BME280;40151;43.606;1.472;2023-07-31T09:37:55;99646.56;;;28.28;44.43
54236;BME280;40151;43.606;1.472;2023-07-31T09:40:32;99634.84;;;28.29;44.31
54236;BME280;40151;43.606;1.472;2023-07-31T09:43:00;99633.84;;;28.30;44.47
54236;BME280;40151;43.606;1.472;2023-07-31T09:45:27;99631.88;;;28.32;44.42
54236;BME280;40151;43.606;1.472;2023-07-31T09:47:53;99631.03;;;28.32;44.64
54236;BME280;40151;43.606;1.472;2023-07-31T09:50:23;99631.59;;;28.35;44.65
54236;BME280;40151;43.606;1.472;2023-07-31T09:52:52;99622.56;;;28.36;44.46
54236;BME280;40151;43.606;1.472;2023-07-31T09:55:19;99624.25;;;28.37;44.19
54236;BME280;40151;43.606;1.472;2023-07-31T09:57:47;99627.63;;;28.39;44.60
54236;BME280;40151;43.606;1.472;2023-07-31T10:00:17;99625.69;;;28.41;44.53
54236;BME280;40151;43.606;1.472;2023-07-31T10:02:46;99625.69;;;28.41;44.73
54236;BME280;40151;43.606;1.472;2023-07-31T10:05:15;99621.00;;;28.44;44.55
54236;BME280;40151;43.606;1.472;2023-07-31T10:07:45;99617.34;;;28.45;44.55
54236;BME280;40151;43.606;1.472;2023-07-31T10:10:15;99616.38;;;28.46;44.51
54236;BME280;40151;43.606;1.472;2023-07-31T10:12:41;99618.06;;;28.47;44.66
54236;BME280;40151;43.606;1.472;2023-07-31T10:15:09;99614.41;;;28.48;44.32
54236;BME280;40151;43.606;1.472;2023-07-31T10:17:36;99616.94;;;28.49;44.54
54236;BME280;40151;43.606;1.472;2023-07-31T10:20:03;99611.41;;;28.51;44.26
54236;BME280;40151;43.606;1.472;2023-07-31T10:22:30;99609.59;;;28.51;44.50
54236;BME280;40151;43.606;1.472;2023-07-31T10:24:58;99606.78;;;28.53;44.21
54236;BME280;40151;43.606;1.472;2023-07-31T10:27:23;99605.78;;;28.54;44.69
54236;BME280;40151;43.606;1.472;2023-07-31T10:29:50;99606.47;;;28.56;44.43
54236;BME280;40151;43.606;1.472;2023-07-31T10:32:17;99610.16;;;28.55;44.36
54236;BME280;40151;43.606;1.472;2023-07-31T10:34:43;99620.63;;;28.58;44.41
54236;BME280;40151;43.606;1.472;2023-07-31T10:37:22;99609.88;;;28.58;44.39
54236;BME280;40151;43.606;1.472;2023-07-31T10:40:06;99606.22;;;28.59;44.50
54236;BME280;40151;43.606;1.472;2023-07-31T10:42:48;99603.53;;;28.59;44.54
54236;BME280;40151;43.606;1.472;2023-07-31T10:45:23;99600.53;;;28.62;44.43
54236;BME280;40151;43.606;1.472;2023-07-31T10:47:49;99595.19;;;28.62;44.16
54236;BME280;40151;43.606;1.472;2023-07-31T10:50:20;99597.72;;;28.64;44.32
54236;BME280;40151;43.606;1.472;2023-07-31T10:52:47;99598.59;;;28.64;44.72
54236;BME280;40151;43.606;1.472;2023-07-31T10:55:40;99598.28;;;28.67;44.50
54236;BME280;40151;43.606;1.472;2023-07-31T10:58:07;99592.91;;;28.67;44.64
54236;BME280;40151;43.606;1.472;2023-07-31T11:00:32;99594.59;;;28.68;44.29
54236;BME280;40151;43.606;1.472;2023-07-31T11:03:03;99594.47;;;28.70;44.39
54236;BME280;40151;43.606;1.472;2023-07-31T11:08:28;99581.63;;;28.74;44.46
54236;BME280;40151;43.606;1.472;2023-07-31T11:13:29;99580.47;;;28.76;44.42
54236;BME280;40151;43.606;1.472;2023-07-31T11:15:54;99573.28;;;28.77;44.55
54236;BME280;40151;43.606;1.472;2023-07-31T11:18:20;99579.34;;;28.79;44.37
54236;BME280;40151;43.606;1.472;2023-07-31T11:20:45;99579.34;;;28.79;44.18
54236;BME280;40151;43.606;1.472;2023-07-31T11:23:11;99573.72;;;28.82;44.69
54236;BME280;40151;43.606;1.472;2023-07-31T11:25:38;99570.16;;;28.81;44.42
54236;BME280;40151;43.606;1.472;2023-07-31T11:28:09;99573.53;;;28.84;44.29
54236;BME280;40151;43.606;1.472;2023-07-31T11:30:35;99569.88;;;28.85;44.69
54236;BME280;40151;43.606;1.472;2023-07-31T11:33:05;99568.91;;;28.86;44.39
54236;BME280;40151;43.606;1.472;2023-07-31T11:35:35;99552.69;;;28.87;44.71
54236;BME280;40151;43.606;1.472;2023-07-31T11:38:02;99550.69;;;28.89;44.68
54236;BME280;40151;43.606;1.472;2023-07-31T11:40:28;99543.50;;;28.90;44.67
54236;BME280;40151;43.606;1.472;2023-07-31T11:43:04;99547.88;;;28.91;44.51
54236;BME280;40151;43.606;1.472;2023-07-31T11:45:30;99545.19;;;28.91;44.35
54236;BME280;40151;43.606;1.472;2023-07-31T11:47:56;99545.88;;;28.93;44.63
54236;BME280;40151;43.606;1.472;2023-07-31T11:50:23;99540.38;;;28.94;44.28
54236;BME280;40151;43.606;1.472;2023-07-31T11:52:54;99543.75;;;28.97;44.50
54236;BME280;40151;43.606;1.472;2023-07-31T11:55:21;99538.38;;;28.97;44.52
54236;BME280;40151;43.606;1.472;2023-07-31T11:57:47;99530.19;;;28.98;44.37
54236;BME280;40151;43.606;1.472;2023-07-31T12:00:13;99536.41;;;28.99;44.69
54236;BME280;40151;43.606;1.472;2023-07-31T12:02:40;99532.72;;;29.00;44.66
54236;BME280;40151;43.606;1.472;2023-07-31T12:05:12;99528.03;;;29.02;44.33
54236;BME280;40151;43.606;1.472;2023-07-31T12:07:53;99519.97;;;29.02;44.47
54236;BME280;40151;43.606;1.472;2023-07-31T12:10:32;99510.94;;;29.03;44.50
54236;BME280;40151;43.606;1.472;2023-07-31T12:13:09;99514.34;;;29.05;44.53
54236;BME280;40151;43.606;1.472;2023-07-31T12:15:42;99518.72;;;29.06;44.49
54236;BME280;40151;43.606;1.472;2023-07-31T12:18:09;99512.34;;;29.07;44.65
54236;BME280;40151;43.606;1.472;2023-07-31T12:20:40;99509.50;;;29.08;44.46
54236;BME280;40151;43.606;1.472;2023-07-31T12:23:05;99511.19;;;29.10;44.79
54236;BME280;40151;43.606;1.472;2023-07-31T12:25:32;99508.38;;;29.11;44.56
54236;BME280;40151;43.606;1.472;2023-07-31T12:28:04;99505.53;;;29.13;44.69
54236;BME280;40151;43.606;1.472;2023-07-31T12:30:34;99507.25;;;29.14;44.44
54236;BME280;40151;43.606;1.472;2023-07-31T12:33:04;99499.00;;;29.15;44.62
54236;BME280;40151;43.606;1.472;2023-07-31T12:35:37;99495.34;;;29.16;44.61
54236;BME280;40151;43.606;1.472;2023-07-31T12:38:02;99490.81;;;29.17;44.48
54236;BME280;40151;43.606;1.472;2023-07-31T12:40:28;99493.50;;;29.17;44.74
54236;BME280;40151;43.606;1.472;2023-07-31T12:42:53;99484.28;;;29.19;44.83
54236;BME280;40151;43.606;1.472;2023-07-31T12:45:19;99484.28;;;29.19;44.72
54236;BME280;40151;43.606;1.472;2023-07-31T12:47:46;99482.28;;;29.21;44.96
54236;BME280;40151;43.606;1.472;2023-07-31T12:50:11;99484.84;;;29.23;44.89
54236;BME280;40151;43.606;1.472;2023-07-31T12:52:37;99477.66;;;29.24;44.93
54236;BME280;40151;43.606;1.472;2023-07-31T12:55:02;99487.41;;;29.25;45.00
54236;BME280;40151;43.606;1.472;2023-07-31T12:57:28;99469.44;;;29.25;44.91
54236;BME280;40151;43.606;1.472;2023-07-31T12:59:53;99471.81;;;29.28;44.59
54236;BME280;40151;43.606;1.472;2023-07-31T13:02:18;99468.28;;;29.28;44.72
54236;BME280;40151;43.606;1.472;2023-07-31T13:04:44;99467.31;;;29.29;44.70
54236;BME280;40151;43.606;1.472;2023-07-31T13:07:09;99463.63;;;29.30;44.66
54236;BME280;40151;43.606;1.472;2023-07-31T13:09:34;99458.94;;;29.32;44.82
54236;BME280;40151;43.606;1.472;2023-07-31T13:12:00;99458.94;;;29.32;44.82